createdAt,value
2023-02-18T00:00:11.612Z,7.61
2023-02-18T00:02:57.051Z,7.72
2023-02-18T00:05:42.509Z,7.74
2023-02-18T00:08:28.519Z,7.74
2023-02-18T00:11:15.744Z,7.73
2023-02-18T00:14:03.810Z,7.63
2023-02-18T00:16:50.311Z,7.69
2023-02-18T00:19:35.407Z,7.71
2023-02-18T00:22:20.886Z,7.82
2023-02-18T00:25:06.363Z,7.97
2023-02-18T00:27:51.628Z,8.00
2023-02-18T00:30:40.839Z,8.02
2023-02-18T00:33:26.754Z,8.14
2023-02-18T00:36:14.564Z,8.24
2023-02-18T00:39:01.955Z,8.27
2023-02-18T00:41:47.391Z,8.26
2023-02-18T00:44:32.564Z,8.24
2023-02-18T00:47:18.187Z,8.25
2023-02-18T00:50:03.511Z,8.20
2023-02-18T00:52:48.967Z,8.25
2023-02-18T00:55:41.698Z,8.31
2023-02-18T00:58:27.463Z,8.26
2023-02-18T01:01:12.811Z,8.25
2023-02-18T01:03:58.538Z,8.27
2023-02-18T01:06:43.469Z,8.40
2023-02-18T01:09:28.824Z,8.45
2023-02-18T01:12:14.541Z,8.32
2023-02-18T01:14:59.428Z,8.34
2023-02-18T01:17:44.487Z,8.35
2023-02-18T01:20:29.536Z,8.26
2023-02-18T01:23:15.126Z,8.30
2023-02-18T01:26:00.153Z,8.29
2023-02-18T01:28:45.379Z,8.32
2023-02-18T01:31:31.049Z,8.39
2023-02-18T01:34:16.094Z,8.40
2023-02-18T01:37:00.905Z,8.30
2023-02-18T01:39:45.851Z,8.30
2023-02-18T01:42:30.848Z,8.30
2023-02-18T01:45:34.555Z,8.32
2023-02-18T01:48:40.360Z,8.28
2023-02-18T01:51:49.965Z,8.32
2023-02-18T01:54:39.446Z,8.35
2023-02-18T01:57:29.833Z,8.36
2023-02-18T02:00:18.091Z,8.44
2023-02-18T02:03:02.987Z,8.52
2023-02-18T02:05:48.055Z,8.58
2023-02-18T02:08:33.328Z,8.61
2023-02-18T02:11:45.049Z,8.68
2023-02-18T02:14:51.938Z,8.76
2023-02-18T02:18:02.811Z,8.80
2023-02-18T02:21:00.355Z,8.83
2023-02-18T02:24:04.377Z,8.86
2023-02-18T02:26:59.039Z,8.90
2023-02-18T02:30:10.251Z,8.94
2023-02-18T02:33:13.316Z,8.97
2023-02-18T02:36:06.010Z,8.92
2023-02-18T02:39:20.030Z,8.98
2023-02-18T02:42:20.745Z,9.04
2023-02-18T02:46:11.385Z,9.08
2023-02-18T02:49:51.181Z,9.15
2023-02-18T02:52:47.726Z,9.12
2023-02-18T02:55:32.714Z,9.15
2023-02-18T02:58:19.081Z,9.19
2023-02-18T03:01:14.435Z,9.17
2023-02-18T03:04:13.373Z,9.21
2023-02-18T03:07:25.510Z,9.19
2023-02-18T03:10:22.939Z,9.19
2023-02-18T03:13:26.302Z,9.13
2023-02-18T03:16:27.149Z,9.11
2023-02-18T03:19:52.680Z,9.08
2023-02-18T03:22:44.038Z,9.07
2023-02-18T03:25:32.092Z,9.06
2023-02-18T03:28:23.142Z,9.07
2023-02-18T03:31:16.469Z,9.05
2023-02-18T03:34:16.116Z,9.05
2023-02-18T03:37:02.437Z,9.07
2023-02-18T03:39:52.472Z,9.09
2023-02-18T03:42:37.660Z,9.12
2023-02-18T03:45:22.807Z,9.12
2023-02-18T03:48:08.091Z,9.14
2023-02-18T03:50:53.025Z,9.17
2023-02-18T03:53:37.875Z,9.18
2023-02-18T03:56:22.871Z,9.16
2023-02-18T03:59:08.361Z,9.20
2023-02-18T04:01:53.584Z,9.19
2023-02-18T04:04:39.332Z,9.22
2023-02-18T04:07:24.560Z,9.20
2023-02-18T04:10:10.454Z,9.21
2023-02-18T04:12:55.798Z,9.28
2023-02-18T04:15:40.897Z,9.28
2023-02-18T04:18:26.133Z,9.30
2023-02-18T04:21:11.638Z,9.30
2023-02-18T04:23:57.134Z,9.30
2023-02-18T04:26:42.549Z,9.32
2023-02-18T04:29:28.128Z,9.30
2023-02-18T04:32:13.571Z,9.32
2023-02-18T04:34:58.924Z,9.33
2023-02-18T04:37:44.140Z,9.32
2023-02-18T04:40:29.741Z,9.37
2023-02-18T04:43:15.451Z,9.38
2023-02-18T04:46:00.618Z,9.39
2023-02-18T04:48:45.902Z,9.38
2023-02-18T04:51:31.373Z,9.46
2023-02-18T04:54:16.312Z,9.49
2023-02-18T04:57:01.879Z,9.50
2023-02-18T04:59:46.715Z,9.50
2023-02-18T05:02:33.152Z,9.49
2023-02-18T05:05:18.629Z,9.50
2023-02-18T05:08:04.070Z,9.48
2023-02-18T05:10:49.359Z,9.48
2023-02-18T05:13:35.175Z,9.48
2023-02-18T05:16:20.670Z,9.46
2023-02-18T05:19:06.286Z,9.47
2023-02-18T05:21:51.471Z,9.47
2023-02-18T05:24:36.917Z,9.45
2023-02-18T05:27:22.242Z,9.47
2023-02-18T05:30:08.363Z,9.48
2023-02-18T05:32:53.341Z,9.51
2023-02-18T05:35:38.780Z,9.50
2023-02-18T05:38:24.431Z,9.51
2023-02-18T05:41:09.657Z,9.46
2023-02-18T05:43:54.971Z,9.46
2023-02-18T05:46:40.317Z,9.48
2023-02-18T05:49:26.045Z,9.46
2023-02-18T05:52:12.098Z,9.49
2023-02-18T05:54:57.196Z,9.47
2023-02-18T05:57:42.663Z,9.48
2023-02-18T06:00:27.931Z,9.44
2023-02-18T06:03:13.345Z,9.43
2023-02-18T06:05:58.282Z,9.42
2023-02-18T06:08:43.535Z,9.42
2023-02-18T06:11:29.034Z,9.41
2023-02-18T06:14:14.322Z,9.41
2023-02-18T06:16:59.688Z,9.40
2023-02-18T06:19:45.685Z,9.39
2023-02-18T06:22:30.910Z,9.37
2023-02-18T06:25:16.817Z,9.40
2023-02-18T06:28:01.653Z,9.38
2023-02-18T06:30:46.617Z,9.36
2023-02-18T06:33:31.977Z,9.38
2023-02-18T06:36:16.836Z,9.38
2023-02-18T06:39:04.729Z,9.36
2023-02-18T06:41:49.860Z,9.37
2023-02-18T06:44:37.584Z,9.38
2023-02-18T06:47:23.236Z,9.37
2023-02-18T06:50:08.898Z,9.35
2023-02-18T06:52:54.261Z,9.34
2023-02-18T06:55:39.590Z,9.35
2023-02-18T06:58:25.143Z,9.35
2023-02-18T07:01:10.652Z,9.35
2023-02-18T07:03:56.069Z,9.34
2023-02-18T07:06:41.628Z,9.32
2023-02-18T07:09:26.820Z,9.33
2023-02-18T07:12:12.307Z,9.34
2023-02-18T07:14:57.540Z,9.36
2023-02-18T07:17:43.110Z,9.38
2023-02-18T07:20:28.852Z,9.41
2023-02-18T07:23:13.898Z,9.39
2023-02-18T07:26:08.291Z,9.47
2023-02-18T07:28:53.824Z,9.50
2023-02-18T07:31:39.350Z,9.51
2023-02-18T07:34:24.777Z,9.50
2023-02-18T07:37:10.232Z,9.50
2023-02-18T07:39:55.507Z,9.51
2023-02-18T07:42:41.195Z,9.51
2023-02-18T07:45:26.497Z,9.52
2023-02-18T07:48:12.175Z,9.52
2023-02-18T07:50:57.564Z,9.49
2023-02-18T07:53:43.168Z,9.49
2023-02-18T07:56:28.390Z,9.49
2023-02-18T07:59:14.455Z,9.52
2023-02-18T08:01:59.735Z,9.56
2023-02-18T08:04:45.022Z,9.59
2023-02-18T08:07:30.261Z,9.58
2023-02-18T08:10:15.714Z,9.56
2023-02-18T08:13:00.871Z,9.57
2023-02-18T08:15:46.471Z,9.57
2023-02-18T08:18:32.223Z,9.58
2023-02-18T08:21:19.340Z,9.58
2023-02-18T08:24:04.549Z,9.59
2023-02-18T08:27:00.322Z,9.64
2023-02-18T08:29:46.108Z,9.68
2023-02-18T08:32:31.537Z,9.69
2023-02-18T08:35:16.811Z,9.67
2023-02-18T08:38:01.929Z,9.66
2023-02-18T08:40:47.705Z,9.65
2023-02-18T08:43:33.106Z,9.65
2023-02-18T08:46:33.289Z,9.69
2023-02-18T08:49:20.484Z,9.64
2023-02-18T08:52:05.768Z,9.63
2023-02-18T08:54:51.439Z,9.63
2023-02-18T08:57:36.637Z,9.65
2023-02-18T09:00:21.853Z,9.62
2023-02-18T09:03:07.379Z,9.65
2023-02-18T09:05:52.688Z,9.69
2023-02-18T09:08:38.013Z,9.67
2023-02-18T09:11:23.611Z,9.61
2023-02-18T09:14:09.305Z,9.57
2023-02-18T09:16:54.607Z,9.51
2023-02-18T09:19:39.901Z,9.48
2023-02-18T09:22:25.186Z,9.45
2023-02-18T09:25:10.807Z,9.41
2023-02-18T09:27:55.896Z,9.38
2023-02-18T09:30:41.424Z,9.39
2023-02-18T09:33:26.757Z,9.41
2023-02-18T09:36:12.576Z,9.36
2023-02-18T09:38:58.212Z,9.34
2023-02-18T09:41:54.557Z,9.37
2023-02-18T09:44:45.726Z,9.38
2023-02-18T09:47:36.983Z,9.36
2023-02-18T09:50:25.842Z,9.39
2023-02-18T09:53:12.464Z,9.38
2023-02-18T09:55:58.596Z,9.36
2023-02-18T09:58:45.876Z,9.33
2023-02-18T10:01:37.909Z,9.26
2023-02-18T10:04:27.056Z,9.26
2023-02-18T10:07:29.766Z,9.15
2023-02-18T10:10:29.158Z,9.12
2023-02-18T10:13:24.452Z,9.14
2023-02-18T10:16:14.964Z,9.13
2023-02-18T10:19:09.718Z,9.11
2023-02-18T10:21:55.804Z,9.07
2023-02-18T10:24:46.356Z,9.02
2023-02-18T10:27:38.708Z,9.06
2023-02-18T10:30:37.992Z,9.08
2023-02-18T10:33:36.954Z,9.06
2023-02-18T10:36:34.760Z,9.04
2023-02-18T10:39:48.523Z,9.04
2023-02-18T10:42:36.588Z,9.03
2023-02-18T10:45:55.540Z,8.95
2023-02-18T10:49:11.324Z,8.94
2023-02-18T10:51:58.106Z,8.95
2023-02-18T10:54:52.409Z,8.90
2023-02-18T10:57:52.341Z,8.87
2023-02-18T11:00:39.902Z,8.86
2023-02-18T11:03:38.568Z,8.84
2023-02-18T11:06:40.097Z,8.80
2023-02-18T11:09:30.264Z,8.78
2023-02-18T11:12:27.932Z,8.73
2023-02-18T11:15:19.451Z,8.72
2023-02-18T11:18:26.672Z,8.74
2023-02-18T11:21:23.794Z,8.75
2023-02-18T11:24:20.206Z,8.69
2023-02-18T11:27:12.054Z,8.75
2023-02-18T11:30:17.490Z,8.72
2023-02-18T11:33:08.992Z,8.73
2023-02-18T11:35:56.354Z,8.70
2023-02-18T11:38:49.820Z,8.79
2023-02-18T11:41:40.943Z,8.73
2023-02-18T11:44:42.014Z,8.72
2023-02-18T11:47:32.980Z,8.69
2023-02-18T11:50:22.664Z,8.74
2023-02-18T11:53:28.533Z,8.72
2023-02-18T11:56:18.481Z,8.73
2023-02-18T11:59:04.483Z,8.76
2023-02-18T12:01:54.885Z,8.72
2023-02-18T12:04:47.326Z,8.71
2023-02-18T12:07:58.641Z,8.73
2023-02-18T12:10:49.090Z,8.69
2023-02-18T12:13:56.346Z,8.71
2023-02-18T12:17:20.424Z,8.64
2023-02-18T12:20:27.674Z,8.72
2023-02-18T12:23:28.319Z,8.78
2023-02-18T12:26:32.029Z,8.71
2023-02-18T12:29:40.883Z,8.68
2023-02-18T12:32:25.780Z,8.65
2023-02-18T12:35:22.875Z,8.67
2023-02-18T12:38:11.253Z,8.63
2023-02-18T12:41:37.838Z,8.62
2023-02-18T12:44:43.504Z,8.62
2023-02-18T12:47:59.178Z,8.62
2023-02-18T12:51:16.518Z,8.68
2023-02-18T12:54:37.021Z,8.71
2023-02-18T12:57:33.452Z,8.73
2023-02-18T13:01:00.175Z,8.77
2023-02-18T13:03:51.668Z,8.76
2023-02-18T13:07:10.564Z,8.73
2023-02-18T13:10:17.201Z,8.74
2023-02-18T13:13:19.284Z,8.69
2023-02-18T13:16:09.136Z,8.71
2023-02-18T13:19:13.191Z,8.72
2023-02-18T13:22:12.241Z,8.73
2023-02-18T13:24:58.731Z,8.77
2023-02-18T13:28:06.731Z,8.78
2023-02-18T13:31:10.992Z,8.79
2023-02-18T13:34:21.881Z,8.81
2023-02-18T13:37:38.386Z,8.83
2023-02-18T13:40:27.493Z,8.83
2023-02-18T13:43:27.796Z,8.87
2023-02-18T13:46:24.354Z,8.92
2023-02-18T13:49:12.908Z,8.96
2023-02-18T13:52:01.340Z,8.97
2023-02-18T13:54:48.685Z,9.04
2023-02-18T13:57:37.327Z,9.01
2023-02-18T14:00:25.788Z,8.98
2023-02-18T14:03:21.876Z,8.92
2023-02-18T14:06:18.653Z,8.87
2023-02-18T14:09:12.997Z,8.91
2023-02-18T14:12:34.792Z,8.87
2023-02-18T14:15:19.864Z,8.92
2023-02-18T14:18:13.729Z,8.97
2023-02-18T14:21:13.895Z,9.05
2023-02-18T14:24:01.965Z,9.06
2023-02-18T14:26:49.056Z,9.09
2023-02-18T14:29:34.448Z,9.09
2023-02-18T14:32:22.063Z,9.13
2023-02-18T14:35:20.315Z,9.17
2023-02-18T14:38:05.301Z,9.18
2023-02-18T14:41:21.486Z,9.24
2023-02-18T14:44:25.665Z,9.21
2023-02-18T14:47:35.640Z,9.25
2023-02-18T14:50:22.314Z,9.25
2023-02-18T14:53:14.543Z,9.27
2023-02-18T14:56:05.450Z,9.30
2023-02-18T14:59:02.944Z,9.31
2023-02-18T15:01:48.322Z,9.33
2023-02-18T15:04:33.464Z,9.34
2023-02-18T15:07:22.678Z,9.36
2023-02-18T15:10:14.972Z,9.42
2023-02-18T15:13:02.672Z,9.41
2023-02-18T15:15:52.298Z,9.43
2023-02-18T15:18:41.954Z,9.46
2023-02-18T15:21:33.305Z,9.46
2023-02-18T15:24:30.494Z,9.51
2023-02-18T15:27:29.733Z,9.54
2023-02-18T15:30:31.107Z,9.53
2023-02-18T15:33:19.889Z,9.53
2023-02-18T15:36:11.846Z,9.54
2023-02-18T15:38:57.634Z,9.53
2023-02-18T15:41:42.990Z,9.54
2023-02-18T15:44:32.416Z,9.54
2023-02-18T15:47:18.154Z,9.54
2023-02-18T15:50:03.926Z,9.54
2023-02-18T15:52:50.606Z,9.52
2023-02-18T15:55:41.386Z,9.55
2023-02-18T15:58:30.905Z,9.57
2023-02-18T16:01:28.659Z,9.53
2023-02-18T16:04:15.211Z,9.54
2023-02-18T16:07:05.448Z,9.53
2023-02-18T16:09:51.331Z,9.51
2023-02-18T16:12:39.185Z,9.50
2023-02-18T16:15:38.033Z,9.54
2023-02-18T16:18:30.837Z,9.60
2023-02-18T16:21:19.322Z,9.55
2023-02-18T16:24:24.273Z,9.60
2023-02-18T16:27:16.151Z,9.61
2023-02-18T16:30:29.690Z,9.62
2023-02-18T16:33:15.131Z,9.57
2023-02-18T16:36:00.427Z,9.59
2023-02-18T16:38:45.622Z,9.61
2023-02-18T16:41:30.792Z,9.59
2023-02-18T16:44:16.362Z,9.61
2023-02-18T16:47:01.809Z,9.56
2023-02-18T16:49:49.654Z,9.55
2023-02-18T16:52:35.143Z,9.56
2023-02-18T16:55:22.853Z,9.57
2023-02-18T16:58:08.293Z,9.64
2023-02-18T17:00:54.288Z,9.61
2023-02-18T17:03:39.646Z,9.59
2023-02-18T17:06:25.143Z,9.61
2023-02-18T17:09:22.345Z,9.57
2023-02-18T17:12:09.297Z,9.55
2023-02-18T17:14:54.649Z,9.49
2023-02-18T17:17:40.150Z,9.50
2023-02-18T17:20:30.880Z,9.52
2023-02-18T17:23:17.930Z,9.50
2023-02-18T17:26:03.530Z,9.52
2023-02-18T17:28:48.776Z,9.49
2023-02-18T17:31:38.096Z,9.51
2023-02-18T17:34:28.720Z,9.54
2023-02-18T17:37:13.893Z,9.51
2023-02-18T17:39:59.252Z,9.48
2023-02-18T17:42:44.473Z,9.47
2023-02-18T17:45:34.455Z,9.53
2023-02-18T17:48:20.006Z,9.53
2023-02-18T17:51:05.722Z,9.55
2023-02-18T17:53:50.577Z,9.56
2023-02-18T17:56:35.999Z,9.55
2023-02-18T17:59:22.149Z,9.56
2023-02-18T18:02:26.946Z,9.53
2023-02-18T18:05:21.414Z,9.56
2023-02-18T18:08:08.064Z,9.58
2023-02-18T18:10:56.045Z,9.62
2023-02-18T18:13:41.215Z,9.65
2023-02-18T18:16:27.408Z,9.65
2023-02-18T18:19:12.345Z,9.64
2023-02-18T18:21:57.740Z,9.69
2023-02-18T18:24:42.939Z,9.65
2023-02-18T18:27:28.437Z,9.62
2023-02-18T18:30:15.172Z,9.62
2023-02-18T18:33:00.229Z,9.63
2023-02-18T18:35:47.423Z,9.68
2023-02-18T18:38:32.781Z,9.67
2023-02-18T18:41:21.049Z,9.61
2023-02-18T18:44:06.502Z,9.56
2023-02-18T18:46:51.656Z,9.51
2023-02-18T18:49:37.057Z,9.49
2023-02-18T18:52:22.396Z,9.45
2023-02-18T18:55:28.071Z,9.42
2023-02-18T18:58:13.369Z,9.42
2023-02-18T19:01:02.131Z,9.37
2023-02-18T19:03:47.516Z,9.37
2023-02-18T19:06:33.232Z,9.39
2023-02-18T19:09:18.473Z,9.34
2023-02-18T19:12:04.081Z,9.28
2023-02-18T19:14:49.718Z,9.25
2023-02-18T19:17:35.128Z,9.22
2023-02-18T19:20:23.824Z,9.27
2023-02-18T19:23:09.488Z,9.26
2023-02-18T19:25:54.826Z,9.07
2023-02-18T19:28:40.084Z,9.06
2023-02-18T19:31:26.282Z,8.97
2023-02-18T19:34:11.422Z,9.02
2023-02-18T19:36:56.939Z,9.07
2023-02-18T19:39:42.205Z,9.11
2023-02-18T19:42:27.589Z,9.13
2023-02-18T19:45:13.265Z,9.14
2023-02-18T19:47:59.488Z,9.11
2023-02-18T19:50:44.632Z,9.16
2023-02-18T19:53:30.263Z,9.12
2023-02-18T19:56:15.304Z,9.14
2023-02-18T19:59:00.986Z,9.17
2023-02-18T20:01:46.290Z,9.17
2023-02-18T20:04:31.761Z,9.23
2023-02-18T20:07:18.701Z,9.21
2023-02-18T20:10:05.998Z,9.23
2023-02-18T20:12:53.258Z,9.22
2023-02-18T20:15:39.877Z,9.08
2023-02-18T20:18:25.239Z,9.05
2023-02-18T20:21:11.502Z,8.95
2023-02-18T20:23:57.328Z,8.98
2023-02-18T20:26:43.149Z,8.96
2023-02-18T20:29:28.323Z,8.94
2023-02-18T20:32:13.722Z,8.96
2023-02-18T20:34:59.245Z,8.96
2023-02-18T20:37:44.561Z,8.95
2023-02-18T20:40:30.000Z,8.98
2023-02-18T20:43:15.918Z,8.93
2023-02-18T20:46:03.455Z,9.03
2023-02-18T20:48:48.540Z,9.03
2023-02-18T20:51:34.342Z,9.01
2023-02-18T20:54:19.854Z,9.02
2023-02-18T20:57:05.387Z,9.06
2023-02-18T20:59:50.769Z,9.09
2023-02-18T21:02:38.923Z,9.02
2023-02-18T21:05:23.842Z,9.04
2023-02-18T21:08:09.513Z,9.05
2023-02-18T21:10:56.359Z,9.05
2023-02-18T21:13:42.168Z,9.10
2023-02-18T21:16:29.219Z,9.10
2023-02-18T21:19:17.257Z,9.17
2023-02-18T21:22:02.736Z,9.24
2023-02-18T21:24:50.554Z,9.20
2023-02-18T21:27:35.813Z,9.13
2023-02-18T21:30:21.145Z,9.17
2023-02-18T21:33:06.818Z,9.13
2023-02-18T21:35:53.704Z,9.15
2023-02-18T21:38:38.897Z,9.15
2023-02-18T21:41:25.438Z,9.17
2023-02-18T21:44:10.695Z,9.15
2023-02-18T21:46:55.901Z,9.10
2023-02-18T21:49:41.318Z,9.09
2023-02-18T21:52:29.736Z,9.09
2023-02-18T21:55:15.098Z,9.15
2023-02-18T21:58:00.443Z,9.03
2023-02-18T22:00:45.410Z,9.10
2023-02-18T22:03:32.328Z,9.06
2023-02-18T22:06:17.606Z,9.12
2023-02-18T22:09:04.598Z,9.06
2023-02-18T22:11:50.117Z,9.03
2023-02-18T22:14:35.523Z,8.98
2023-02-18T22:17:20.817Z,8.97
2023-02-18T22:20:06.953Z,8.93
2023-02-18T22:22:53.597Z,8.96
2023-02-18T22:25:38.830Z,8.87
2023-02-18T22:28:23.906Z,8.92
2023-02-18T22:31:11.916Z,8.92
2023-02-18T22:33:58.831Z,9.02
2023-02-18T22:36:44.230Z,8.96
2023-02-18T22:39:29.773Z,8.92
2023-02-18T22:42:14.938Z,8.90
2023-02-18T22:45:00.282Z,8.94
2023-02-18T22:47:45.736Z,8.81
2023-02-18T22:50:31.044Z,8.81
2023-02-18T22:53:15.938Z,8.78
2023-02-18T22:56:03.358Z,8.78
2023-02-18T22:58:50.083Z,8.76
2023-02-18T23:01:37.702Z,8.75
2023-02-18T23:04:22.914Z,8.75
2023-02-18T23:07:08.246Z,8.74
2023-02-18T23:09:53.769Z,8.70
2023-02-18T23:12:39.061Z,8.68
2023-02-18T23:15:23.950Z,8.65
2023-02-18T23:18:09.376Z,8.64
2023-02-18T23:21:12.971Z,8.65
2023-02-18T23:23:58.039Z,8.57
2023-02-18T23:26:43.472Z,8.57
2023-02-18T23:29:28.850Z,8.56
2023-02-18T23:32:14.286Z,8.53
2023-02-18T23:34:59.451Z,8.55
2023-02-18T23:37:44.532Z,8.57
2023-02-18T23:40:30.115Z,8.53
2023-02-18T23:43:15.415Z,8.61
2023-02-18T23:46:00.718Z,8.50
2023-02-18T23:48:47.445Z,8.47
2023-02-18T23:51:32.696Z,8.47
2023-02-18T23:54:18.013Z,8.47
2023-02-18T23:57:02.974Z,8.44
2023-02-18T23:59:47.881Z,8.42
